Time;durP1;ratioP1;P1;durP2;ratioP2;P2;SDS_P1;SDS_P2;PMS_P1;PMS_P2;Temp;Humidity;BMP_temperature;BMP_pressure;BME280_temperature;BME280_humidity;BME280_pressure;Samples;Min_cycle;Max_cycle;Signal;HPM_P1;HPM_P2
2024/02/14 00:00:52;;;;;;;27.03;26.13;;;20.40;57.10;;;;;;5042302;28;20449;-68
2024/02/14 00:03:20;;;;;;;26.87;25.97;;;20.40;57.10;;;;;;5042133;28;20527;-69
2024/02/14 00:05:47;;;;;;;27.30;26.30;;;20.40;57.10;;;;;;5045491;28;20452;-69
2024/02/14 00:08:14;;;;;;;27.17;26.17;;;20.40;57.20;;;;;;5045810;28;20475;-68
2024/02/14 00:10:44;;;;;;;27.90;26.90;;;20.40;57.20;;;;;;5042897;28;20493;-69
2024/02/14 00:13:13;;;;;;;27.70;26.70;;;20.40;57.20;;;;;;5042161;28;20516;-69
2024/02/14 00:15:40;;;;;;;27.43;26.43;;;20.40;57.30;;;;;;5043533;28;20449;-68
2024/02/14 00:18:07;;;;;;;27.57;26.57;;;20.40;57.30;;;;;;5047731;28;20477;-69
2024/02/14 00:20:34;;;;;;;28.17;27.07;;;20.40;57.30;;;;;;5043082;28;20473;-68
2024/02/14 00:23:01;;;;;;;28.40;27.30;;;20.40;57.30;;;;;;5045496;28;20468;-69
2024/02/14 00:25:30;;;;;;;27.50;26.50;;;20.30;57.20;;;;;;5044785;28;20491;-68
2024/02/14 00:27:57;;;;;;;26.60;25.60;;;20.30;57.20;;;;;;5042037;28;20928;-68
2024/02/14 00:30:25;;;;;;;27.93;26.97;;;20.30;57.30;;;;;;5041812;28;20445;-68
2024/02/14 00:32:52;;;;;;;28.00;26.80;;;20.30;57.30;;;;;;5033868;28;20523;-68
2024/02/14 00:35:19;;;;;;;27.23;26.23;;;20.30;57.30;;;;;;5041729;28;20473;-69
2024/02/14 00:37:46;;;;;;;28.33;27.33;;;20.30;57.30;;;;;;5049128;28;20473;-69
2024/02/14 00:40:13;;;;;;;28.00;27.00;;;20.30;57.40;;;;;;5041758;28;20537;-69
2024/02/14 00:42:40;;;;;;;27.27;26.27;;;20.30;57.30;;;;;;5043707;28;20514;-69
2024/02/14 00:45:08;;;;;;;27.70;26.70;;;20.30;57.40;;;;;;5045007;28;20444;-69
2024/02/14 00:47:37;;;;;;;27.67;26.67;;;20.20;57.40;;;;;;5043313;28;20961;-69
2024/02/14 00:50:04;;;;;;;27.10;26.10;;;20.20;57.40;;;;;;5041546;28;20472;-69
2024/02/14 00:52:31;;;;;;;26.97;26.00;;;20.20;57.40;;;;;;5041879;28;20904;-68
2024/02/14 00:54:58;;;;;;;26.67;25.77;;;20.20;57.40;;;;;;5044994;28;20522;-69
2024/02/14 00:57:26;;;;;;;26.30;25.40;;;20.20;57.40;;;;;;5044722;28;20436;-68
2024/02/14 00:59:53;;;;;;;26.90;25.90;;;20.20;57.40;;;;;;5041244;28;20456;-67
2024/02/14 01:02:20;;;;;;;27.00;26.00;;;20.20;57.50;;;;;;5040972;28;20465;-69
2024/02/14 01:04:48;;;;;;;26.97;26.00;;;20.20;57.50;;;;;;5044080;28;20800;-67
2024/02/14 01:07:15;;;;;;;28.00;26.90;;;20.20;57.60;;;;;;5044524;28;20479;-69
2024/02/14 01:09:42;;;;;;;27.53;26.53;;;20.20;57.60;;;;;;5042448;28;20968;-69
2024/02/14 01:12:09;;;;;;;27.50;26.50;;;20.20;57.60;;;;;;5040846;28;20500;-68
2024/02/14 01:14:36;;;;;;;27.70;26.70;;;20.20;57.90;;;;;;5042186;28;20505;-69
2024/02/14 01:17:03;;;;;;;28.00;27.00;;;20.10;57.60;;;;;;5044250;28;20468;-69
2024/02/14 01:19:30;;;;;;;28.17;27.17;;;20.10;57.60;;;;;;5043637;28;20940;-68
2024/02/14 01:21:58;;;;;;;28.30;27.30;;;20.10;57.60;;;;;;5040845;28;20497;-68
2024/02/14 01:24:26;;;;;;;28.43;27.43;;;20.10;57.70;;;;;;5040792;28;20465;-68
2024/02/14 01:26:53;;;;;;;28.70;27.70;;;20.10;57.70;;;;;;5032719;28;20844;-68
2024/02/14 01:29:20;;;;;;;27.10;26.10;;;20.10;57.80;;;;;;5040621;28;20855;-69
2024/02/14 01:31:47;;;;;;;26.90;26.00;;;20.10;57.80;;;;;;5042487;28;20522;-68
2024/02/14 01:34:14;;;;;;;32.80;31.60;;;20.10;57.80;;;;;;5043207;28;20560;-68
2024/02/14 01:36:41;;;;;;;36.03;34.83;;;20.10;57.80;;;;;;5040842;28;20472;-68
2024/02/14 01:39:11;;;;;;;30.63;29.53;;;20.10;57.80;;;;;;5043792;28;20476;-68
2024/02/14 01:41:38;;;;;;;32.10;31.00;;;20.10;57.80;;;;;;5042040;28;20455;-69
2024/02/14 01:44:05;;;;;;;31.70;30.60;;;20.10;57.80;;;;;;5040211;28;20430;-69
2024/02/14 01:46:32;;;;;;;32.57;31.37;;;20.00;57.80;;;;;;5040983;28;20445;-69
2024/02/14 01:48:59;;;;;;;32.80;31.57;;;20.00;57.80;;;;;;5043695;28;20464;-69
2024/02/14 01:51:26;;;;;;;31.80;30.70;;;20.00;57.90;;;;;;5043602;28;20491;-68
2024/02/14 01:53:55;;;;;;;31.50;30.23;;;20.00;57.90;;;;;;5034799;28;20476;-69
2024/02/14 01:56:23;;;;;;;32.43;31.23;;;20.10;58.00;;;;;;5043785;28;20471;-68
2024/02/14 01:58:51;;;;;;;33.20;31.93;;;20.00;58.00;;;;;;5040400;28;20466;-69
2024/02/14 02:01:19;;;;;;;32.00;30.80;;;20.00;58.00;;;;;;5039949;28;20500;-68
2024/02/14 02:03:45;;;;;;;31.57;30.47;;;20.00;58.00;;;;;;5042591;28;20686;-69
2024/02/14 02:06:12;;;;;;;33.70;32.50;;;20.00;58.10;;;;;;5043647;28;20464;-68
2024/02/14 02:08:39;;;;;;;34.20;33.00;;;20.00;58.00;;;;;;5041877;28;20444;-69
2024/02/14 02:11:06;;;;;;;27.17;26.17;;;20.00;58.10;;;;;;5039822;28;20487;-68
2024/02/14 02:13:34;;;;;;;28.17;27.17;;;20.00;58.10;;;;;;5040403;28;20481;-69
2024/02/14 02:16:04;;;;;;;28.00;27.00;;;20.00;58.10;;;;;;5043488;28;20932;-69
2024/02/14 02:18:32;;;;;;;29.20;28.10;;;20.00;58.20;;;;;;5042841;28;20444;-69
2024/02/14 02:20:58;;;;;;;29.23;28.23;;;20.00;58.20;;;;;;5039618;28;21100;-68
2024/02/14 02:23:27;;;;;;;29.00;27.90;;;20.00;58.20;;;;;;5043020;28;20465;-69
2024/02/14 02:25:54;;;;;;;29.37;28.37;;;20.00;58.20;;;;;;5043240;28;20590;-69
2024/02/14 02:28:20;;;;;;;28.30;27.30;;;20.00;58.30;;;;;;5043230;28;20437;-68
2024/02/14 02:30:46;;;;;;;28.70;27.70;;;20.00;58.30;;;;;;5040275;28;20472;-69
2024/02/14 02:33:13;;;;;;;27.00;26.10;;;19.90;58.20;;;;;;5039813;28;20473;-68
2024/02/14 02:35:44;;;;;;;27.40;26.40;;;20.00;58.30;;;;;;5041238;28;20205;-68
2024/02/14 02:38:10;;;;;;;28.40;27.40;;;19.90;58.20;;;;;;5043134;28;20943;-68
2024/02/14 02:40:39;;;;;;;28.30;27.30;;;19.90;58.20;;;;;;5041741;28;20872;-68
2024/02/14 02:43:06;;;;;;;28.03;27.03;;;19.90;58.20;;;;;;5039798;28;20507;-68
2024/02/14 02:45:32;;;;;;;28.60;27.50;;;20.00;58.30;;;;;;5043741;28;20511;-68
2024/02/14 02:48:01;;;;;;;27.57;26.23;;;19.90;58.30;;;;;;5047231;28;20440;-68
2024/02/14 02:50:27;;;;;;;27.50;26.50;;;19.90;58.30;;;;;;5053321;28;20480;-69
2024/02/14 02:52:54;;;;;;;27.90;26.80;;;19.90;58.40;;;;;;5043400;28;20492;-69
2024/02/14 02:55:21;;;;;;;26.60;25.60;;;19.90;58.40;;;;;;5043613;28;20508;-68
2024/02/14 02:57:50;;;;;;;27.40;26.40;;;19.90;58.50;;;;;;5046088;28;20480;-69
2024/02/14 03:00:21;;;;;;;28.00;27.00;;;19.90;58.50;;;;;;5046785;28;20485;-68
2024/02/14 03:02:48;;;;;;;28.37;27.37;;;19.90;58.50;;;;;;5044332;28;20546;-68
2024/02/14 03:05:18;;;;;;;27.27;26.27;;;19.90;58.50;;;;;;5043514;28;20444;-67
2024/02/14 03:07:48;;;;;;;29.50;28.40;;;19.90;58.50;;;;;;5045474;28;20968;-67
2024/02/14 03:10:17;;;;;;;27.20;26.23;;;19.90;58.50;;;;;;5046550;28;20439;-69
2024/02/14 03:12:47;;;;;;;28.40;27.40;;;19.90;58.50;;;;;;5044647;28;20877;-69
2024/02/14 03:15:15;;;;;;;27.57;26.57;;;19.90;58.50;;;;;;5043101;28;21019;-68
2024/02/14 03:17:43;;;;;;;36.40;35.10;;;19.90;58.50;;;;;;5044659;28;20495;-69
2024/02/14 03:20:14;;;;;;;36.03;34.83;;;19.80;58.40;;;;;;5046444;28;20440;-69
2024/02/14 03:22:44;;;;;;;30.40;29.30;;;19.80;58.40;;;;;;5045128;28;20495;-68
2024/02/14 03:25:13;;;;;;;32.50;31.30;;;19.90;58.50;;;;;;5043063;28;20445;-69
2024/02/14 03:27:40;;;;;;;31.17;30.07;;;19.80;58.40;;;;;;5044110;28;20502;-68
2024/02/14 03:30:08;;;;;;;31.90;30.70;;;19.90;58.50;;;;;;5046329;28;20462;-68
2024/02/14 03:32:36;;;;;;;32.50;31.30;;;19.80;58.40;;;;;;5045723;28;20550;-69
2024/02/14 03:35:03;;;;;;;31.57;30.47;;;19.80;58.30;;;;;;5042741;28;20512;-69
2024/02/14 03:37:30;;;;;;;31.47;30.37;;;19.90;58.50;;;;;;5042932;28;20967;-68
2024/02/14 03:39:57;;;;;;;32.53;31.37;;;19.80;58.30;;;;;;5034746;28;20469;-68
2024/02/14 03:42:26;;;;;;;33.47;32.27;;;19.90;58.30;;;;;;5042666;28;20489;-68
2024/02/14 03:44:53;;;;;;;32.53;31.43;;;19.90;58.40;;;;;;5045385;28;20436;-68
2024/02/14 03:47:20;;;;;;;33.07;31.87;;;19.90;58.40;;;;;;5045345;28;20444;-67
2024/02/14 03:49:48;;;;;;;34.00;32.80;;;19.80;58.30;;;;;;5045846;28;20449;-69
2024/02/14 03:52:15;;;;;;;32.87;31.67;;;19.80;58.30;;;;;;5045869;28;20495;-68
2024/02/14 03:54:42;;;;;;;32.03;30.83;;;19.80;58.30;;;;;;5043947;28;20499;-68
2024/02/14 03:57:08;;;;;;;31.70;30.50;;;19.80;58.30;;;;;;5042528;28;20478;-68
2024/02/14 03:59:39;;;;;;;32.33;31.10;;;19.80;58.30;;;;;;5039702;28;20495;-69
2024/02/14 04:02:09;;;;;;;33.73;32.53;;;19.80;58.30;;;;;;5045774;28;20546;-69
2024/02/14 04:04:38;;;;;;;32.93;31.73;;;19.80;58.30;;;;;;5045063;28;20532;-68
2024/02/14 04:07:08;;;;;;;33.70;32.50;;;19.80;58.30;;;;;;5042352;28;20441;-68
2024/02/14 04:09:35;;;;;;;34.80;33.50;;;19.80;58.30;;;;;;5042318;28;20452;-68
2024/02/14 04:12:02;;;;;;;34.10;32.90;;;19.80;58.30;;;;;;5045335;28;20484;-67
2024/02/14 04:14:29;;;;;;;33.50;32.30;;;19.80;58.30;;;;;;5045349;28;20512;-69
2024/02/14 04:16:56;;;;;;;33.90;32.70;;;19.80;58.30;;;;;;5042447;28;20468;-68
2024/02/14 04:19:23;;;;;;;29.83;28.73;;;19.80;58.30;;;;;;5041919;28;20472;-68
2024/02/14 04:21:50;;;;;;;29.27;28.27;;;19.80;58.30;;;;;;5043914;28;20484;-68
2024/02/14 04:24:18;;;;;;;29.13;28.10;;;19.80;58.30;;;;;;5044709;28;20440;-68
2024/02/14 04:26:45;;;;;;;30.30;29.20;;;19.80;58.30;;;;;;5045059;28;20450;-68
2024/02/14 04:29:12;;;;;;;29.97;28.87;;;19.80;58.30;;;;;;5045147;28;20515;-68
2024/02/14 04:31:38;;;;;;;30.50;29.40;;;19.80;58.30;;;;;;5070635;22;20526;-65
2024/02/14 04:34:08;;;;;;;30.23;29.13;;;19.80;58.30;;;;;;5064457;28;20506;-66
2024/02/14 04:36:35;;;;;;;31.13;29.70;;;19.80;58.30;;;;;;5065023;28;20452;-65
2024/02/14 04:39:03;;;;;;;30.67;29.57;;;19.80;58.30;;;;;;5065211;28;20442;-67
2024/02/14 04:41:31;;;;;;;31.83;30.63;;;19.80;58.30;;;;;;5060614;28;20838;-66
2024/02/14 04:43:58;;;;;;;29.53;28.43;;;19.80;58.30;;;;;;5041929;28;20469;-66
2024/02/14 04:46:25;;;;;;;30.00;28.90;;;19.80;58.30;;;;;;5041749;28;20860;-65
2024/02/14 04:48:52;;;;;;;29.87;28.77;;;19.80;58.30;;;;;;5044045;28;20856;-66
2024/02/14 04:51:19;;;;;;;30.60;29.40;;;19.70;58.20;;;;;;5044978;28;20464;-66
2024/02/14 04:53:46;;;;;;;30.93;29.73;;;19.70;58.10;;;;;;5043400;28;20487;-66
2024/02/14 04:56:13;;;;;;;29.10;28.00;;;19.70;58.10;;;;;;5041827;28;20465;-67
2024/02/14 04:58:41;;;;;;;29.07;28.07;;;19.70;58.10;;;;;;5042296;28;20465;-66
2024/02/14 05:01:08;;;;;;;32.87;31.67;;;19.70;58.10;;;;;;5045042;28;20475;-66
2024/02/14 05:03:36;;;;;;;31.50;30.40;;;19.70;58.10;;;;;;5044923;28;20523;-65
2024/02/14 05:06:05;;;;;;;33.43;32.23;;;19.80;58.10;;;;;;5042553;28;20916;-66
2024/02/14 05:08:32;;;;;;;33.90;32.70;;;19.80;58.10;;;;;;5041133;28;20473;-66
2024/02/14 05:11:00;;;;;;;34.70;33.40;;;19.80;58.10;;;;;;5044414;28;20476;-67
2024/02/14 05:13:27;;;;;;;34.80;33.50;;;19.80;58.10;;;;;;5044762;28;20475;-66
2024/02/14 05:15:55;;;;;;;35.40;33.67;;;19.70;58.10;;;;;;5042344;28;20480;-66
2024/02/14 05:18:22;;;;;;;36.87;34.97;;;19.70;62.60;;;;;;5041816;28;20480;-66
2024/02/14 05:20:49;;;;;;;41.77;39.00;;;19.80;67.40;;;;;;5043603;28;20476;-66
2024/02/14 05:23:17;;;;;;;39.90;37.10;;;19.80;76.30;;;;;;5044753;28;20606;-66
2024/02/14 05:25:44;;;;;;;39.93;36.70;;;19.80;78.80;;;;;;5043153;28;20471;-65
2024/02/14 05:28:13;;;;;;;40.43;36.77;;;19.80;83.50;;;;;;5040843;28;20442;-64
2024/02/14 05:30:40;;;;;;;37.63;35.43;;;19.80;84.70;;;;;;5044437;28;20503;-66
2024/02/14 05:33:08;;;;;;;39.77;36.50;;;19.80;84.20;;;;;;5044778;28;20468;-67
2024/02/14 05:35:35;;;;;;;37.23;35.03;;;19.80;80.50;;;;;;5043881;28;20500;-67
2024/02/14 05:38:04;;;;;;;37.80;35.13;;;19.80;78.40;;;;;;5043858;28;20469;-67
2024/02/14 05:40:31;;;;;;;38.77;36.10;;;19.80;76.80;;;;;;5043613;28;20478;-67
2024/02/14 05:42:58;;;;;;;36.20;33.77;;;19.80;75.60;;;;;;5040555;28;20461;-67
2024/02/14 05:45:25;;;;;;;36.63;34.50;;;19.80;74.70;;;;;;5040233;28;20528;-67
2024/02/14 05:47:52;;;;;;;38.40;36.10;;;19.80;74.20;;;;;;5042065;28;20941;-67
2024/02/14 05:50:19;;;;;;;38.47;35.73;;;19.80;73.50;;;;;;5043541;28;20825;-67
2024/02/14 05:52:46;;;;;;;38.83;36.83;;;19.80;73.10;;;;;;5043836;28;20483;-67
2024/02/14 05:55:13;;;;;;;36.53;34.40;;;19.80;72.60;;;;;;5044484;28;20966;-67
2024/02/14 05:57:41;;;;;;;38.83;36.10;;;19.80;72.20;;;;;;5043430;28;20505;-67
2024/02/14 06:00:10;;;;;;;40.03;37.47;;;19.80;71.60;;;;;;5040781;28;20484;-67
2024/02/14 06:02:37;;;;;;;42.00;39.50;;;19.80;71.20;;;;;;5040831;28;20476;-67
2024/02/14 06:05:04;;;;;;;39.27;37.20;;;19.80;70.60;;;;;;5033146;28;20429;-67
2024/02/14 06:07:33;;;;;;;38.50;36.37;;;19.80;70.20;;;;;;5041455;28;20469;-67
2024/02/14 06:10:00;;;;;;;38.50;36.37;;;19.80;69.80;;;;;;5043828;28;20530;-67
2024/02/14 06:12:26;;;;;;;36.20;34.00;;;19.80;69.40;;;;;;5043993;28;20491;-67
2024/02/14 06:14:53;;;;;;;36.20;34.47;;;19.80;69.00;;;;;;5041624;28;20557;-67
2024/02/14 06:17:20;;;;;;;36.27;34.40;;;19.80;68.70;;;;;;5040552;28;20933;-67
2024/02/14 06:19:47;;;;;;;37.03;34.70;;;19.80;68.30;;;;;;5048963;28;20476;-67
2024/02/14 06:22:14;;;;;;;35.13;33.27;;;19.80;68.10;;;;;;5040784;28;20493;-67
2024/02/14 06:24:42;;;;;;;33.70;32.10;;;19.80;67.70;;;;;;5040868;28;20465;-67
2024/02/14 06:27:09;;;;;;;35.37;33.10;;;19.80;67.30;;;;;;5044292;28;20943;-67
2024/02/14 06:29:36;;;;;;;34.70;32.23;;;19.80;67.00;;;;;;5043935;28;20939;-67
2024/02/14 06:32:04;;;;;;;33.20;31.70;;;19.80;66.70;;;;;;5040152;28;20492;-67
2024/02/14 06:34:31;;;;;;;36.17;34.13;;;19.80;66.60;;;;;;5039515;28;20501;-67
2024/02/14 06:36:58;;;;;;;34.57;32.77;;;19.80;66.30;;;;;;5041387;28;20495;-67
2024/02/14 06:39:24;;;;;;;35.20;33.20;;;19.80;66.10;;;;;;5040704;28;20480;-67
2024/02/14 06:41:53;;;;;;;34.40;32.77;;;19.80;66.00;;;;;;5042054;28;20496;-67
2024/02/14 06:44:19;;;;;;;35.17;33.03;;;19.80;65.60;;;;;;5043635;28;20482;-67
2024/02/14 06:46:46;;;;;;;34.37;32.80;;;19.80;65.50;;;;;;5042909;28;20468;-67
2024/02/14 06:49:13;;;;;;;34.30;32.53;;;19.80;65.20;;;;;;5037161;28;20467;-67
2024/02/14 06:51:40;;;;;;;33.73;31.53;;;19.80;65.10;;;;;;5043876;28;20501;-67
2024/02/14 06:54:07;;;;;;;34.60;33.20;;;19.80;64.90;;;;;;5043604;28;20444;-67
2024/02/14 06:56:34;;;;;;;35.37;33.47;;;19.80;64.70;;;;;;5043811;28;20484;-67
2024/02/14 06:59:03;;;;;;;33.93;32.13;;;19.80;64.50;;;;;;5040536;28;20868;-67
2024/02/14 07:01:30;;;;;;;33.60;32.20;;;19.80;64.30;;;;;;5040466;28;20976;-67
2024/02/14 07:03:57;;;;;;;34.67;33.17;;;19.80;64.10;;;;;;5043003;28;20472;-67
2024/02/14 07:06:24;;;;;;;36.30;34.70;;;19.80;64.00;;;;;;5044642;28;20448;-67
2024/02/14 07:08:51;;;;;;;35.17;33.40;;;19.80;63.80;;;;;;5042713;28;20502;-67
2024/02/14 07:11:18;;;;;;;36.17;34.40;;;19.80;63.70;;;;;;5040385;28;20472;-67
2024/02/14 07:13:45;;;;;;;35.97;34.37;;;19.80;63.50;;;;;;5040902;28;20480;-67
2024/02/14 07:16:13;;;;;;;36.80;35.00;;;19.80;63.30;;;;;;5044209;28;20534;-67
2024/02/14 07:18:41;;;;;;;35.30;33.77;;;19.80;63.20;;;;;;5044194;28;20479;-67
2024/02/14 07:21:08;;;;;;;35.00;33.50;;;19.80;63.00;;;;;;5031655;28;20476;-67
2024/02/14 07:23:35;;;;;;;35.03;33.53;;;19.80;63.00;;;;;;5039237;28;20476;-67
2024/02/14 07:26:02;;;;;;;38.40;36.70;;;19.80;62.80;;;;;;5042032;28;20903;-67
2024/02/14 07:28:29;;;;;;;36.77;35.07;;;19.80;62.70;;;;;;5042481;28;20524;-67
2024/02/14 07:30:56;;;;;;;35.17;33.67;;;19.80;62.60;;;;;;5042881;28;20475;-68
2024/02/14 07:33:24;;;;;;;35.67;34.20;;;19.70;62.40;;;;;;5042623;28;20526;-67
2024/02/14 07:35:51;;;;;;;35.07;33.50;;;19.70;62.30;;;;;;5044008;28;20481;-67
2024/02/14 07:38:18;;;;;;;38.30;36.60;;;19.70;62.20;;;;;;5046209;28;20481;-67
2024/02/14 07:40:45;;;;;;;36.57;34.90;;;19.70;62.80;;;;;;5045426;28;20479;-68
2024/02/14 07:43:12;;;;;;;37.10;35.13;;;19.70;61.90;;;;;;5042395;28;20493;-67
2024/02/14 07:45:39;;;;;;;35.63;34.03;;;19.70;61.80;;;;;;5042661;28;20457;-67
2024/02/14 07:48:07;;;;;;;38.83;37.10;;;19.70;61.80;;;;;;5045571;28;20492;-68
2024/02/14 07:50:36;;;;;;;39.60;37.67;;;19.70;61.60;;;;;;5045818;28;20479;-67
2024/02/14 07:53:04;;;;;;;38.70;37.00;;;19.70;61.50;;;;;;5042552;28;20460;-67
2024/02/14 07:55:31;;;;;;;38.20;36.70;;;19.70;61.40;;;;;;5042176;28;20512;-67
2024/02/14 07:57:59;;;;;;;38.77;37.07;;;19.70;61.40;;;;;;5044375;28;20441;-67
2024/02/14 08:00:26;;;;;;;37.07;35.50;;;19.70;61.30;;;;;;5045677;28;20483;-67
2024/02/14 08:02:53;;;;;;;34.37;33.07;;;19.70;61.20;;;;;;5044137;28;20491;-67
2024/02/14 08:05:20;;;;;;;36.70;35.00;;;19.70;61.10;;;;;;5042016;28;20875;-67
2024/02/14 08:07:48;;;;;;;37.97;36.03;;;19.70;61.10;;;;;;5042366;28;20524;-67
2024/02/14 08:10:15;;;;;;;35.30;33.77;;;19.70;61.00;;;;;;5045377;28;20468;-67
2024/02/14 08:12:42;;;;;;;34.90;33.40;;;19.70;60.90;;;;;;5045514;28;20484;-67
2024/02/14 08:15:10;;;;;;;38.63;36.93;;;19.70;60.80;;;;;;5034667;28;20453;-67
2024/02/14 08:17:37;;;;;;;39.70;38.10;;;19.70;60.70;;;;;;5042073;28;20520;-68
2024/02/14 08:20:05;;;;;;;37.60;36.20;;;19.70;60.70;;;;;;5044982;28;20479;-67
2024/02/14 08:22:32;;;;;;;40.83;39.13;;;19.70;60.70;;;;;;5046663;28;20502;-67
2024/02/14 08:25:00;;;;;;;37.80;36.20;;;19.70;60.60;;;;;;5045051;28;20942;-68
2024/02/14 08:27:28;;;;;;;37.30;35.90;;;19.70;60.60;;;;;;5043738;28;20473;-67
2024/02/14 08:29:55;;;;;;;37.60;36.10;;;19.70;60.50;;;;;;5044928;28;20970;-70
2024/02/14 08:32:22;;;;;;;37.67;36.17;;;19.70;60.40;;;;;;5045559;28;20464;-67
2024/02/14 08:34:50;;;;;;;38.53;36.93;;;19.70;60.30;;;;;;5038647;28;20445;-67
2024/02/14 08:37:17;;;;;;;37.97;36.47;;;19.70;60.30;;;;;;5046842;28;20480;-68
2024/02/14 08:39:44;;;;;;;39.83;38.13;;;19.70;60.20;;;;;;5046650;28;20479;-67
2024/02/14 08:42:12;;;;;;;39.37;37.77;;;19.70;60.20;;;;;;5036753;28;20468;-67
2024/02/14 08:44:40;;;;;;;39.17;37.57;;;19.70;60.10;;;;;;5045177;28;20449;-67
2024/02/14 08:47:08;;;;;;;34.63;33.23;;;19.70;60.10;;;;;;5047284;28;21029;-67
2024/02/14 08:49:35;;;;;;;36.93;35.47;;;19.70;60.10;;;;;;5047884;28;20479;-67
2024/02/14 08:52:03;;;;;;;37.10;35.70;;;19.70;60.00;;;;;;5042123;28;20468;-68
2024/02/14 08:54:29;;;;;;;36.97;35.57;;;19.70;59.90;;;;;;5041226;28;20480;-67
2024/02/14 08:56:59;;;;;;;37.60;36.00;;;19.70;59.90;;;;;;5042743;28;20508;-67
2024/02/14 08:59:27;;;;;;;38.27;36.87;;;19.70;59.90;;;;;;5044587;28;20453;-67
2024/02/14 09:01:54;;;;;;;37.70;36.20;;;19.70;59.80;;;;;;5043043;28;20464;-67
2024/02/14 09:04:21;;;;;;;37.93;36.43;;;19.70;59.80;;;;;;5040899;28;20445;-67
2024/02/14 09:06:48;;;;;;;38.90;37.40;;;19.70;59.80;;;;;;5041330;28;20472;-67
2024/02/14 09:09:15;;;;;;;38.57;37.07;;;19.70;59.70;;;;;;5044369;28;20476;-67
2024/02/14 09:11:42;;;;;;;37.90;36.50;;;19.70;59.70;;;;;;5044149;28;20555;-66
2024/02/14 09:14:10;;;;;;;39.23;37.40;;;19.70;59.70;;;;;;5040779;28;20484;-68
2024/02/14 09:16:38;;;;;;;35.73;34.43;;;19.70;59.60;;;;;;5040721;28;20485;-69
2024/02/14 09:19:07;;;;;;;39.27;37.80;;;19.70;59.60;;;;;;5043317;28;20487;-67
2024/02/14 09:21:36;;;;;;;37.07;35.67;;;19.70;59.50;;;;;;5043890;28;20466;-67
2024/02/14 09:24:03;;;;;;;36.40;35.00;;;19.70;59.50;;;;;;5041537;28;20898;-67
2024/02/14 09:26:30;;;;;;;36.07;34.67;;;19.70;59.50;;;;;;5040495;28;20484;-67
2024/02/14 09:28:57;;;;;;;37.80;36.40;;;19.70;59.40;;;;;;5042202;28;20481;-67
2024/02/14 09:31:24;;;;;;;38.30;36.90;;;19.70;59.40;;;;;;5043850;28;20484;-67
2024/02/14 09:33:56;;;;;;;39.03;37.53;;;19.70;59.40;;;;;;5043066;28;20483;-67
2024/02/14 09:36:23;;;;;;;39.57;37.90;;;19.70;59.30;;;;;;5040524;28;20481;-67
2024/02/14 09:38:52;;;;;;;38.30;36.80;;;19.70;59.30;;;;;;5042777;28;20502;-68
2024/02/14 09:41:23;;;;;;;40.60;39.00;;;19.70;59.30;;;;;;5045722;28;20444;-67
2024/02/14 09:43:50;;;;;;;38.73;37.23;;;19.70;59.30;;;;;;5044498;28;20487;-68
2024/02/14 09:46:17;;;;;;;38.43;37.03;;;19.70;59.30;;;;;;5041779;28;20487;-68
2024/02/14 09:48:46;;;;;;;38.00;36.57;;;19.70;59.30;;;;;;5041403;28;20960;-67
2024/02/14 09:51:14;;;;;;;38.93;37.40;;;19.70;59.30;;;;;;5032682;28;20882;-67
2024/02/14 09:53:41;;;;;;;40.50;38.90;;;19.70;59.20;;;;;;5042189;28;20471;-67
2024/02/14 09:56:11;;;;;;;38.70;37.30;;;19.70;59.20;;;;;;5044652;28;20503;-67
2024/02/14 09:58:38;;;;;;;40.83;39.27;;;19.70;59.20;;;;;;5037461;28;20499;-67
2024/02/14 10:01:06;;;;;;;37.77;36.37;;;19.70;59.20;;;;;;5043410;28;20449;-67
2024/02/14 10:03:33;;;;;;;38.70;37.20;;;19.70;59.20;;;;;;5043413;28;20447;-67
2024/02/14 10:06:00;;;;;;;41.70;39.90;;;19.70;59.10;;;;;;5041456;28;20436;-67
2024/02/14 10:08:29;;;;;;;40.70;39.10;;;19.70;59.10;;;;;;5039997;28;21003;-67
2024/02/14 10:10:59;;;;;;;41.60;40.10;;;19.70;59.10;;;;;;5040848;28;20970;-67
2024/02/14 10:13:28;;;;;;;40.00;38.50;;;19.70;59.00;;;;;;5043477;28;20814;-67
2024/02/14 10:15:56;;;;;;;38.87;37.27;;;19.70;59.00;;;;;;5042482;28;20486;-66
2024/02/14 10:18:23;;;;;;;39.30;37.80;;;19.70;59.00;;;;;;5040187;28;20873;-67
2024/02/14 10:20:56;;;;;;;41.50;40.00;;;19.70;58.90;;;;;;5040285;28;20445;-67
2024/02/14 10:23:23;;;;;;;41.60;40.00;;;19.70;58.90;;;;;;5043988;28;20878;-68
2024/02/14 10:25:55;;;;;;;41.17;39.57;;;19.70;58.90;;;;;;5043016;28;20472;-67
2024/02/14 10:28:23;;;;;;;40.13;38.63;;;19.70;58.90;;;;;;5041330;28;20441;-67
2024/02/14 10:30:50;;;;;;;38.20;36.80;;;19.70;58.90;;;;;;5040620;28;20469;-67
2024/02/14 10:33:17;;;;;;;41.40;39.90;;;19.70;58.90;;;;;;5100580;22;20501;-66
2024/02/14 10:35:44;;;;;;;38.53;37.13;;;19.70;58.90;;;;;;5059885;28;20472;-68
2024/02/14 10:38:12;;;;;;;40.10;38.70;;;19.70;58.80;;;;;;5062957;28;20467;-66
2024/02/14 10:40:39;;;;;;;40.87;39.37;;;19.70;58.80;;;;;;5063048;28;20443;-68
2024/02/14 10:43:09;;;;;;;41.03;39.53;;;19.70;58.80;;;;;;5044742;28;20491;-69
2024/02/14 10:45:36;;;;;;;41.60;40.10;;;19.70;58.80;;;;;;5039542;28;20529;-68
2024/02/14 10:48:06;;;;;;;40.40;39.00;;;19.70;58.70;;;;;;5041461;28;20986;-68
2024/02/14 10:50:35;;;;;;;38.00;36.60;;;19.70;58.70;;;;;;5043514;28;20437;-67
2024/02/14 10:53:05;;;;;;;37.73;36.33;;;19.70;58.60;;;;;;5042014;28;20841;-67
2024/02/14 10:55:34;;;;;;;39.07;37.60;;;19.70;58.60;;;;;;5040212;28;20447;-68
2024/02/14 10:58:03;;;;;;;38.30;36.90;;;19.70;58.60;;;;;;5041344;28;20477;-68
2024/02/14 11:00:33;;;;;;;36.67;35.37;;;19.70;58.60;;;;;;5043220;28;20451;-67
2024/02/14 11:03:01;;;;;;;38.73;37.30;;;19.70;58.60;;;;;;5041389;28;20456;-68
2024/02/14 11:05:28;;;;;;;36.87;35.47;;;19.70;58.50;;;;;;5041231;28;20476;-68
2024/02/14 11:07:56;;;;;;;37.50;36.00;;;19.70;58.50;;;;;;5044110;28;20477;-68
2024/02/14 11:10:23;;;;;;;37.50;36.10;;;19.70;58.50;;;;;;5046802;28;20447;-68
2024/02/14 11:12:51;;;;;;;35.30;34.00;;;19.70;58.40;;;;;;5046748;28;20464;-66
2024/02/14 11:15:20;;;;;;;37.30;35.90;;;19.70;58.40;;;;;;5043602;28;20532;-67
2024/02/14 11:17:51;;;;;;;35.80;34.50;;;19.70;58.40;;;;;;5043326;28;20509;-68
2024/02/14 11:20:19;;;;;;;36.60;35.20;;;19.70;58.40;;;;;;5035489;28;20445;-67
2024/02/14 11:22:57;;;;;;;34.97;33.67;;;19.70;58.40;;;;;;5043171;28;20496;-68
2024/02/14 11:25:30;;;;;;;37.77;36.27;;;19.70;58.40;;;;;;5035957;28;20476;-68
2024/02/14 11:27:58;;;;;;;36.10;34.80;;;19.70;58.40;;;;;;5044050;28;20445;-67
2024/02/14 11:30:31;;;;;;;35.70;34.30;;;19.70;58.40;;;;;;5046836;28;20450;-67
2024/02/14 11:33:16;;;;;;;36.10;34.80;;;19.70;58.40;;;;;;5045413;28;20495;-66
2024/02/14 11:35:43;;;;;;;36.93;35.53;;;19.70;58.40;;;;;;5043045;28;20959;-67
2024/02/14 11:38:11;;;;;;;34.97;33.67;;;19.70;58.40;;;;;;5045437;28;20508;-67
2024/02/14 11:40:39;;;;;;;36.90;35.50;;;19.70;58.40;;;;;;5046439;28;20479;-68
2024/02/14 11:43:06;;;;;;;37.20;35.80;;;19.70;58.40;;;;;;5044396;28;20889;-67
2024/02/14 11:45:32;;;;;;;37.57;36.07;;;19.70;58.40;;;;;;5042827;28;20476;-66
2024/02/14 11:47:59;;;;;;;35.90;34.50;;;19.70;58.30;;;;;;5043867;28;20472;-68
2024/02/14 11:50:28;;;;;;;36.53;35.23;;;19.70;58.30;;;;;;5046580;28;20494;-68
2024/02/14 11:52:55;;;;;;;33.63;32.33;;;19.70;58.30;;;;;;5045998;28;20460;-67
2024/02/14 11:55:28;;;;;;;35.43;34.03;;;19.70;58.30;;;;;;5043134;28;20853;-68
2024/02/14 11:57:56;;;;;;;37.37;35.87;;;19.70;58.30;;;;;;5043150;28;20504;-68
2024/02/14 12:00:23;;;;;;;36.60;35.20;;;19.70;58.30;;;;;;5046568;28;20440;-67
2024/02/14 12:02:51;;;;;;;37.50;36.00;;;19.70;58.30;;;;;;5046042;28;20987;-68
2024/02/14 12:05:18;;;;;;;36.10;34.70;;;19.70;58.20;;;;;;5034507;28;20468;-68
2024/02/14 12:07:47;;;;;;;37.30;35.90;;;19.70;58.20;;;;;;5042348;28;20468;-68
2024/02/14 12:10:17;;;;;;;37.10;35.60;;;19.70;58.20;;;;;;5046093;28;20436;-67
2024/02/14 12:12:46;;;;;;;37.40;35.90;;;19.70;58.20;;;;;;5046782;28;20482;-67
2024/02/14 12:15:15;;;;;;;37.67;36.27;;;19.70;58.20;;;;;;5043201;28;20959;-67
2024/02/14 12:17:42;;;;;;;37.10;35.70;;;19.70;58.20;;;;;;5042084;28;20484;-68
2024/02/14 12:20:11;;;;;;;37.27;35.87;;;19.70;58.20;;;;;;5044619;28;20458;-67
2024/02/14 12:22:38;;;;;;;37.00;35.50;;;19.70;58.20;;;;;;5045570;28;20498;-67
2024/02/14 12:25:07;;;;;;;37.37;35.97;;;19.70;58.20;;;;;;5043824;28;20472;-68
2024/02/14 12:27:34;;;;;;;36.17;34.70;;;19.70;58.10;;;;;;5042277;28;20444;-68
2024/02/14 12:30:05;;;;;;;35.83;34.43;;;19.70;58.10;;;;;;5043102;28;20452;-67